M I D A S
Marine Information and Data Acquisition System
Tripno 61 of the Zeeleeuw from 2001-08-29 06:08:12 to 2001-08-29 16:50:04
Back to CruiseResearch ActivitiesStationsMapUnderway DataData graphs

EquipmentUnitsComments
TimeDGPSUTC
LatitudeDGPSDM.mWGS84
LongitudeDGPSDM.mWGS84
SpeedMeteo Stationm/sRelative wind speed
DirectionMeteo StationdegRelative wind direction
TemperatureMeteo Stationdeg CelciusAir temperature
PressureMeteo StationPaAtmospheric pressure
HumidityMeteo Station%Relative humidity
Missing or incorrect values are displayed as -999
Metereological data collected by the RV Zeeleeuw from 2001-08-29 06:08:12 to 2001-08-29 16:50:04
Time Latitude Longitude Speed Direction Temperature Pressure Humidity
2001-08-29 06:09 51°13.676 2°55.924 2.4 14 13.2 101650 82
2001-08-29 06:10 51°13.677 2°55.924 2.3 20 13.2 101650 83
2001-08-29 06:11 51°13.677 2°55.924 3.8 17 13.2 101650 82
2001-08-29 06:12 51°13.677 2°55.923 2.3 21 13.2 101650 83
2001-08-29 06:13 51°13.677 2°55.923 3.5 17 13.2 101660 83
2001-08-29 06:14 51°13.678 2°55.923 1.8 1 13.2 101660 83
2001-08-29 06:15 51°13.678 2°55.922 2.9 16 13.3 101660 83
2001-08-29 06:16 51°13.678 2°55.922 2.7 15 13.3 101660 83
2001-08-29 06:17 51°13.678 2°55.922 3.1 15 13.2 101670 83
2001-08-29 06:18 51°13.678 2°55.922 3.5 12 13.2 101670 83
2001-08-29 06:19 51°13.677 2°55.922 2.8 16 13.2 101670 82
2001-08-29 06:20 51°13.677 2°55.922 2.1 28 13.3 101670 83
2001-08-29 06:21 51°13.677 2°55.922 1.8 24 13.3 101670 82
2001-08-29 06:22 51°13.677 2°55.922 3 12 13.4 101670 83
2001-08-29 06:23 51°13.677 2°55.922 2.1 33 13.3 101670 82
2001-08-29 06:24 51°13.676 2°55.922 2.7 25 13.4 101660 82
2001-08-29 06:25 51°13.676 2°55.923 2.5 21 13.4 101660 82
2001-08-29 06:26 51°13.677 2°55.922 2.9 31 13.3 -999 80
2001-08-29 06:27 51°13.677 2°55.922 1.6 23 13.4 101660 81
2001-08-29 06:28 51°13.677 2°55.922 3.8 37 13.4 101660 81
2001-08-29 06:29 51°13.677 2°55.922 3.1 16 13.4 101660 81
2001-08-29 06:30 51°13.677 2°55.922 2.9 19 13.5 101660 81
2001-08-29 06:31 51°13.677 2°55.922 2 35 13.5 101660 81
2001-08-29 06:33 51°13.676 2°55.922 2 35 13.5 101660 81
2001-08-29 06:34 51°13.677 2°55.922 3.8 35 13.7 101650 80
2001-08-29 06:35 51°13.677 2°55.922 4.4 27 13.7 101650 80
2001-08-29 06:36 51°13.677 2°55.922 2.6 17 13.7 101640 80
2001-08-29 06:37 51°13.677 2°55.922 3.2 25 13.7 101640 80
2001-08-29 06:38 51°13.677 2°55.922 2.2 39 13.8 101630 80
2001-08-29 06:39 51°13.677 2°55.922 3 42 13.8 101630 80
2001-08-29 06:40 51°13.677 2°55.922 3.7 42 13.7 101630 80
2001-08-29 06:41 51°13.677 2°55.921 4.8 31 13.8 101630 80
2001-08-29 06:42 51°13.677 2°55.922 3.3 26 13.8 101630 80
2001-08-29 06:43 51°13.677 2°55.922 3.6 34 13.8 101630 80
2001-08-29 06:44 51°13.677 2°55.922 5.1 28 13.8 101630 79
2001-08-29 06:45 51°13.677 2°55.922 4.9 35 13.8 101630 80
2001-08-29 06:46 51°13.677 2°55.922 4.4 33 13.8 101630 79
2001-08-29 06:47 51°13.677 2°55.922 3.1 31 13.8 101630 80
2001-08-29 06:48 51°13.677 2°55.922 2.5 49 13.9 101630 80
2001-08-29 06:50 51°13.677 2°55.923 4.6 42 13.9 -999 78
2001-08-29 06:51 51°13.677 2°55.923 4.3 27 14 101640 79
2001-08-29 06:52 51°13.677 2°55.923 2.6 29 13.9 101640 79
2001-08-29 06:53 51°13.677 2°55.923 3.5 37 14 101640 80
2001-08-29 06:54 51°13.676 2°55.923 2.5 15 14.1 101640 79
2001-08-29 06:55 51°13.677 2°55.923 3.5 25 14.2 101640 80
2001-08-29 06:56 51°13.676 2°55.922 2.7 40 14.2 101640 80
2001-08-29 06:57 51°13.676 2°55.923 4.4 31 14.3 101640 79
2001-08-29 06:58 51°13.677 2°55.923 2.9 133 14.3 101630 78
2001-08-29 06:59 51°13.677 2°55.923 3.4 39 14.3 101630 79
2001-08-29 07:00 51°13.677 2°55.923 3.6 31 14.4 101630 79
2001-08-29 07:01 51°13.677 2°55.923 2.8 24 14.4 101630 78
2001-08-29 07:02 51°13.677 2°55.923 3.8 30 14.5 101630 78
2001-08-29 07:03 51°13.677 2°55.923 4.4 39 14.5 101630 77
2001-08-29 07:04 51°13.677 2°55.923 3.7 31 14.5 101640 78
2001-08-29 07:05 51°13.677 2°55.924 3.8 27 14.6 101630 78
2001-08-29 07:06 51°13.675 2°55.924 2.6 4 14.6 101630 78
2001-08-29 07:07 51°13.676 2°55.9 3.1 17 14.6 101630 78
2001-08-29 07:08 51°13.684 2°55.805 2 352 14.5 101630 78
2001-08-29 07:09 51°13.691 2°55.74 2.7 342 14.4 101630 78
2001-08-29 07:10 51°13.705 2°55.751 3.9 231 14.4 101620 80
2001-08-29 07:11 51°13.733 2°55.729 2.6 240 14.4 101620 80
2001-08-29 07:12 51°13.812 2°55.653 2.8 271 14.5 101630 79
2001-08-29 07:13 51°13.913 2°55.574 2.7 305 14.5 101630 79
2001-08-29 07:14 51°14.024 2°55.497 2.3 302 14.4 101630 79
2001-08-29 07:15 51°14.132 2°55.416 1.7 264 14.5 101630 79
2001-08-29 07:16 51°14.236 2°55.314 2.3 266 14.5 101640 80
2001-08-29 07:17 51°14.326 2°55.151 0.9 244 14.6 101630 80
2001-08-29 07:18 51°14.454 2°54.965 1.9 307 14.6 101630 79
2001-08-29 07:19 51°14.607 2°54.781 2.9 262 14.7 101630 79
2001-08-29 07:20 51°14.768 2°54.609 3.9 275 14.7 101630 80
2001-08-29 07:21 51°14.925 2°54.428 2.8 305 14.8 101630 81
2001-08-29 07:22 51°15.088 2°54.262 3.4 278 14.9 101630 78
2001-08-29 07:23 51°15.268 2°54.097 3.8 295 15 101630 79
2001-08-29 07:24 51°15.46 2°53.911 4.1 303 15 101620 79
2001-08-29 07:25 51°15.656 2°53.738 4 301 15 101630 79
2001-08-29 07:26 51°15.853 2°53.571 4.3 291 15 101620 77
2001-08-29 07:27 51°16.05 2°53.411 4 276 15.1 101630 79
2001-08-29 07:28 51°16.252 2°53.264 4.2 286 15.2 101620 77
2001-08-29 07:29 51°16.453 2°53.111 4.2 302 15.3 101620 78
2001-08-29 07:30 51°16.65 2°52.95 4.5 302 15.3 101620 78
2001-08-29 07:31 51°16.845 2°52.789 5.2 299 15.4 101630 79
2001-08-29 07:32 51°17.045 2°52.641 5.2 302 15.5 101620 76
2001-08-29 07:33 51°17.243 2°52.488 4.4 287 15.6 101620 78
2001-08-29 07:34 51°17.438 2°52.319 3.7 273 15.5 101630 76
2001-08-29 07:35 51°17.596 2°52.089 2.6 255 15.6 101630 77
2001-08-29 07:36 51°17.699 2°51.78 1.3 244 15.7 101630 75
2001-08-29 07:37 51°17.799 2°51.467 0.3 285 15.7 101640 74
2001-08-29 07:38 51°17.89 2°51.147 0.1 134 15.9 101630 74
2001-08-29 07:39 51°17.98 2°50.827 0.3 323 16 101640 75
2001-08-29 07:40 51°18.073 2°50.508 0.2 134 16.2 101630 75
2001-08-29 07:41 51°18.161 2°50.186 0.5 89 16.3 101640 74
2001-08-29 07:42 51°18.252 2°49.866 0.5 132 16.5 101630 75
2001-08-29 07:43 51°18.338 2°49.544 0.6 98 16.6 101630 74
2001-08-29 07:44 51°18.428 2°49.227 0.5 18 16.6 101640 72
2001-08-29 07:45 51°18.513 2°48.908 0.5 88 16.7 101640 72
2001-08-29 07:46 51°18.597 2°48.586 0.5 205 16.8 101640 70
2001-08-29 07:47 51°18.681 2°48.261 0.1 232 17 101640 71
2001-08-29 07:48 51°18.773 2°47.941 0.9 255 17 101630 69
2001-08-29 07:49 51°18.857 2°47.615 0.6 287 16.9 101630 66
2001-08-29 07:50 51°18.942 2°47.286 0.6 217 16.9 101630 67
2001-08-29 07:51 51°19.031 2°46.958 1.5 274 17 101630 68
2001-08-29 07:52 51°19.117 2°46.628 0.3 224 17 101630 69
2001-08-29 07:53 51°19.2 2°46.301 0.4 144 17 101620 69
2001-08-29 07:54 51°19.286 2°45.975 0.6 75 17 101620 69
2001-08-29 07:55 51°19.373 2°45.649 0.9 112 16.9 101610 67
2001-08-29 07:56 51°19.459 2°45.325 1 107 16.9 101620 68
2001-08-29 07:57 51°19.543 2°45.004 0.7 126 16.9 101620 67
2001-08-29 07:58 51°19.635 2°44.681 0.7 118 16.8 101620 66
2001-08-29 07:59 51°19.729 2°44.344 0.4 126 16.8 101620 66
2001-08-29 08:00 51°19.817 2°44.016 0.6 24 16.9 101620 67
2001-08-29 08:01 51°19.9 2°43.686 0.6 171 17 101630 69
2001-08-29 08:02 51°19.986 2°43.355 0.9 125 17 101620 68
2001-08-29 08:03 51°20.07 2°43.023 0.8 112 16.9 101630 68
2001-08-29 08:04 51°20.165 2°42.696 0.3 236 16.9 101630 68
2001-08-29 08:05 51°20.253 2°42.366 1.2 352 16.9 101630 70
2001-08-29 08:06 51°20.333 2°42.044 0.3 10 17.1 101620 70
2001-08-29 08:07 51°20.425 2°41.721 0.5 57 17.1 101620 69
2001-08-29 08:08 51°20.52 2°41.387 1 127 17.3 101620 69
2001-08-29 08:09 51°20.608 2°41.061 0.4 104 17.3 101630 70
2001-08-29 08:10 51°20.698 2°40.734 1 135 17.2 101630 69
2001-08-29 08:11 51°20.78 2°40.402 0.5 120 17.1 101640 67
2001-08-29 08:12 51°20.869 2°40.074 1.3 165 17.2 101640 70
2001-08-29 08:13 51°20.946 2°39.738 1.5 113 17.2 101640 70
2001-08-29 08:14 51°21.025 2°39.407 0.9 129 17.2 101640 69
2001-08-29 08:15 51°21.136 2°39.098 1.1 207 17.2 101640 70
2001-08-29 08:16 51°21.309 2°38.879 6.1 276 17.2 101630 69
2001-08-29 08:17 51°21.536 2°38.888 5.7 285 17 101630 69
2001-08-29 08:18 51°21.764 2°38.985 8.1 304 16.9 101610 72
2001-08-29 08:19 51°21.991 2°39.082 8 303 16.7 101620 72
2001-08-29 08:20 51°22.222 2°39.167 8.4 309 16.6 101620 71
2001-08-29 08:21 51°22.451 2°39.254 6.6 303 16.6 101600 71
2001-08-29 08:22 51°22.68 2°39.355 7.1 302 16.6 101610 73
2001-08-29 08:23 51°22.911 2°39.439 8.8 309 16.6 101610 71
2001-08-29 08:24 51°23.145 2°39.513 7.7 305 16.5 101620 72
2001-08-29 08:25 51°23.379 2°39.58 5.6 301 16.5 101630 72
2001-08-29 08:26 51°23.608 2°39.673 8.9 306 16.6 101620 73
2001-08-29 08:27 51°23.838 2°39.788 8.3 307 16.5 101610 72
2001-08-29 08:28 51°24.066 2°39.913 9.7 317 16.5 101620 73
2001-08-29 08:29 51°24.294 2°40.015 7.8 304 16.5 101610 74
2001-08-29 08:30 51°24.523 2°40.091 7.5 308 16.4 101620 72
2001-08-29 08:31 51°24.754 2°40.154 8.4 317 16.5 101620 74
2001-08-29 08:32 51°24.986 2°40.188 4.6 301 16.4 101620 71
2001-08-29 08:33 51°25.219 2°40.22 8.1 305 16.4 101630 73
2001-08-29 08:34 51°25.45 2°40.272 7 313 16.4 101630 72
2001-08-29 08:35 51°25.679 2°40.342 6.7 304 16.4 101630 72
2001-08-29 08:36 51°25.904 2°40.446 7.9 305 16.4 101630 73
2001-08-29 08:37 51°26.127 2°40.567 9.5 319 16.4 101620 73
2001-08-29 08:38 51°26.298 2°40.811 10.7 335 16.4 101620 72
2001-08-29 08:39 51°26.431 2°41.114 10.8 336 16.4 101630 73
2001-08-29 08:40 51°26.558 2°41.427 10.9 334 16.4 101620 71
2001-08-29 08:41 51°26.676 2°41.748 11.6 334 16.4 101620 71
2001-08-29 08:42 51°26.787 2°42.075 11.8 339 16.4 101630 72
2001-08-29 08:43 51°26.907 2°42.395 12.4 336 16.4 101620 73
2001-08-29 08:44 51°27.024 2°42.72 12.3 346 16.4 101620 71
2001-08-29 08:45 51°27.136 2°43.049 10.8 342 16.4 101620 72
2001-08-29 08:46 51°27.251 2°43.376 10.6 336 16.4 101620 72
2001-08-29 08:47 51°27.363 2°43.707 12.3 345 16.4 101620 73
2001-08-29 08:48 51°27.473 2°44.04 9.9 338 16.4 101630 71
2001-08-29 08:49 51°27.585 2°44.37 9.7 337 16.4 101640 74
2001-08-29 08:50 51°27.601 2°44.716 14.5 3 16.4 101630 73
2001-08-29 08:51 51°27.432 2°44.885 14 18 16.5 101630 72
2001-08-29 08:52 51°27.235 2°45.015 15 16 16.6 101630 73
2001-08-29 08:53 51°27.04 2°45.148 15.7 13 16.7 101630 74
2001-08-29 08:54 51°26.846 2°45.29 14.6 14 16.7 101630 72
2001-08-29 08:55 51°26.649 2°45.422 15.6 30 16.8 101630 71
2001-08-29 08:56 51°26.454 2°45.559 14.3 16 16.8 101620 70
2001-08-29 08:57 51°26.256 2°45.689 15.1 15 16.8 101620 71
2001-08-29 08:58 51°26.059 2°45.82 14.1 21 16.9 101600 69
2001-08-29 08:59 51°25.86 2°45.954 15.3 23 16.8 101620 69
2001-08-29 09:00 51°25.663 2°46.095 13.8 26 16.9 101610 71
2001-08-29 09:01 51°25.465 2°46.237 15 25 16.9 101610 72
2001-08-29 09:02 51°25.266 2°46.37 14.5 25 16.9 101600 69
2001-08-29 09:03 51°25.066 2°46.498 14.3 21 16.9 101590 69
2001-08-29 09:04 51°24.865 2°46.613 14.6 14 16.9 101590 69
2001-08-29 09:05 51°24.807 2°46.917 12.4 346 16.9 101600 69
2001-08-29 09:06 51°24.925 2°47.239 12.4 345 16.9 101600 70
2001-08-29 09:07 51°25.041 2°47.568 11.2 348 16.8 101600 68
2001-08-29 09:08 51°25.164 2°47.893 12.4 348 16.7 101580 72
2001-08-29 09:09 51°25.28 2°48.226 12.6 340 16.7 101600 69
2001-08-29 09:10 51°25.399 2°48.555 11.3 336 16.7 101600 69
2001-08-29 09:11 51°25.52 2°48.885 12.2 345 16.7 101600 70
2001-08-29 09:12 51°25.639 2°49.218 12 347 16.7 101590 67
2001-08-29 09:13 51°25.76 2°49.551 11.9 343 16.7 101590 69
2001-08-29 09:14 51°25.885 2°49.878 11.6 340 16.7 101590 66
2001-08-29 09:15 51°26.02 2°50.196 8.9 337 16.7 101600 69
2001-08-29 09:16 51°26.232 2°50.351 8.1 306 16.7 101630 69
2001-08-29 09:17 51°26.456 2°50.265 5.3 278 16.7 101630 68
2001-08-29 09:18 51°26.657 2°50.093 2.7 281 16.6 101640 69
2001-08-29 09:19 51°26.851 2°49.929 2.6 306 16.7 101640 68
2001-08-29 09:20 51°27.059 2°49.752 3.9 271 16.8 101630 68
2001-08-29 09:21 51°27.262 2°49.591 4 303 16.8 101620 67
2001-08-29 09:22 51°27.462 2°49.419 4.8 316 16.7 101630 68
2001-08-29 09:23 51°27.668 2°49.258 3.2 291 16.8 101620 69
2001-08-29 09:24 51°27.873 2°49.098 3.1 293 16.7 101620 65
2001-08-29 09:25 51°28.078 2°48.937 4.1 304 16.7 101630 69
2001-08-29 09:26 51°28.287 2°48.786 3.9 302 16.8 101630 69
2001-08-29 09:27 51°28.493 2°48.629 3.3 289 16.7 101630 67
2001-08-29 09:28 51°28.703 2°48.632 10.5 327 16.8 101610 69
2001-08-29 09:29 51°28.804 2°48.962 11.7 349 16.8 101600 68
2001-08-29 09:30 51°28.895 2°49.317 12.2 350 16.8 101600 68
2001-08-29 09:31 51°28.981 2°49.677 11.4 346 16.9 101610 69
2001-08-29 09:32 51°29.078 2°50.03 12.2 349 16.9 101610 68
2001-08-29 09:33 51°29.174 2°50.384 12.8 349 16.9 101610 68
2001-08-29 09:34 51°29.267 2°50.74 11.6 348 17 101610 70
2001-08-29 09:35 51°29.366 2°51.094 11.8 348 17 101610 68
2001-08-29 09:36 51°29.458 2°51.449 12 350 17 101620 68
2001-08-29 09:37 51°29.544 2°51.806 12.1 350 17 101610 67
2001-08-29 09:38 51°29.619 2°52.165 10.7 357 17 101610 68
2001-08-29 09:39 51°29.533 2°52.458 15.5 29 17 101610 67
2001-08-29 09:40 51°29.345 2°52.615 13.6 23 17 101590 68
2001-08-29 09:41 51°29.153 2°52.773 14.4 21 17 101600 70
2001-08-29 09:42 51°28.961 2°52.931 16.4 32 17 101580 66
2001-08-29 09:43 51°28.763 2°53.076 16 33 17 101580 65
2001-08-29 09:44 51°28.574 2°53.242 15.2 20 17 101580 65
2001-08-29 09:45 51°28.382 2°53.4 13.8 17 17.1 101580 65
2001-08-29 09:46 51°28.196 2°53.552 15.3 24 17.1 101590 68
2001-08-29 09:47 51°28.003 2°53.713 14.2 29 17.1 101580 64
2001-08-29 09:48 51°27.822 2°53.875 15.4 28 17.1 101580 67
2001-08-29 09:49 51°27.625 2°54.03 14.8 26 17.1 101590 67
2001-08-29 09:50 51°27.442 2°54.207 14.4 18 17.1 101580 67
2001-08-29 09:51 51°27.336 2°54.506 13.9 359 17.2 101580 66
2001-08-29 09:52 51°27.425 2°54.84 9.9 337 17.1 101600 66
2001-08-29 09:53 51°27.622 2°55.067 9.4 333 17 101590 66
2001-08-29 09:54 51°27.816 2°55.301 11.3 332 16.9 101600 67
2001-08-29 09:55 51°28.011 2°55.535 11 338 16.8 101590 67
2001-08-29 09:56 51°28.205 2°55.768 10.4 334 16.8 101610 69
2001-08-29 09:57 51°28.396 2°56.009 9.6 331 16.8 101600 67
2001-08-29 09:58 51°28.588 2°56.25 10.5 334 16.8 101610 67
2001-08-29 09:59 51°28.778 2°56.496 10.4 338 16.8 101590 70
2001-08-29 10:00 51°28.966 2°56.747 10.9 332 16.8 101590 68
2001-08-29 10:01 51°29.148 2°56.989 10.6 339 16.7 101590 70
2001-08-29 10:02 51°29.343 2°57.248 11.1 338 16.7 101590 69
2001-08-29 10:03 51°29.526 2°57.506 10.4 345 16.7 101590 66
2001-08-29 10:04 51°29.712 2°57.762 9.5 341 16.8 101600 69
2001-08-29 10:05 51°29.9 2°58.01 10 329 16.7 101600 69
2001-08-29 10:06 51°30.091 2°58.256 12.5 345 16.7 101590 67
2001-08-29 10:07 51°30.284 2°58.498 11.2 332 16.7 101590 66
2001-08-29 10:08 51°30.468 2°58.749 10.9 338 16.7 101610 69
2001-08-29 10:09 51°30.653 2°58.996 9.2 335 16.7 101600 66
2001-08-29 10:10 51°30.834 2°59.247 11.1 341 16.7 101600 71
2001-08-29 10:11 51°31.023 2°59.487 10.4 334 16.8 101590 70
2001-08-29 10:12 51°31.221 2°59.707 10.7 336 16.7 101600 68
2001-08-29 10:13 51°31.426 2°59.916 9.5 335 16.7 101610 70
2001-08-29 10:14 51°31.622 3°0.143 8.8 337 16.7 101600 70
2001-08-29 10:15 51°31.816 3°0.378 8.8 334 16.7 101600 71
2001-08-29 10:16 51°31.936 3°0.677 12.1 360 16.6 101590 69
2001-08-29 10:17 51°31.799 3°0.899 12.6 26 16.7 101580 68
2001-08-29 10:18 51°31.601 3°1.032 14.5 30 16.8 101570 69
2001-08-29 10:19 51°31.402 3°1.156 16.6 36 16.9 101590 69
2001-08-29 10:20 51°31.203 3°1.286 14.3 30 16.9 101570 67
2001-08-29 10:21 51°31.002 3°1.407 13.2 29 16.9 101570 69
2001-08-29 10:22 51°30.799 3°1.515 13.7 25 17 101580 67
2001-08-29 10:23 51°30.597 3°1.623 15.2 29 17 101580 67
2001-08-29 10:24 51°30.393 3°1.722 11.7 37 17 101580 66
2001-08-29 10:25 51°30.188 3°1.81 15.9 33 17 101580 67
2001-08-29 10:26 51°29.986 3°1.909 15.9 33 17 101560 64
2001-08-29 10:27 51°29.78 3°1.999 14.2 37 17 101570 64
2001-08-29 10:28 51°29.577 3°2.1 11.3 40 17.1 101560 66
2001-08-29 10:29 51°29.376 3°2.221 12.4 40 17.1 101570 67
2001-08-29 10:30 51°29.179 3°2.33 14.4 34 17.1 101580 69
2001-08-29 10:31 51°28.981 3°2.429 14.4 32 17.1 101580 65
2001-08-29 10:32 51°28.779 3°2.531 13.8 33 17.1 101560 65
2001-08-29 10:33 51°28.575 3°2.631 15.7 38 17.2 101570 67
2001-08-29 10:34 51°28.372 3°2.739 14.2 36 17.2 101560 68
2001-08-29 10:35 51°28.169 3°2.838 14.3 32 17.2 101560 66
2001-08-29 10:36 51°27.964 3°2.946 14.2 31 17.3 101560 66
2001-08-29 10:37 51°27.758 3°3.038 12 29 17.3 101560 66
2001-08-29 10:38 51°27.55 3°3.136 14.4 28 17.3 101550 65
2001-08-29 10:39 51°27.348 3°3.25 14.3 28 17.3 101540 64
2001-08-29 10:40 51°27.143 3°3.344 14.8 28 17.3 101560 64
2001-08-29 10:41 51°26.946 3°3.476 14.3 33 17.4 101550 64
2001-08-29 10:42 51°26.745 3°3.592 14.9 33 17.4 101560 64
2001-08-29 10:43 51°26.546 3°3.709 14.1 22 17.4 101560 66
2001-08-29 10:44 51°26.406 3°3.97 14.7 19 17.4 101550 65
2001-08-29 10:45 51°26.296 3°4.28 14.5 15 17.5 101550 66
2001-08-29 10:46 51°26.187 3°4.587 13.2 13 17.5 101540 65
2001-08-29 10:47 51°26.075 3°4.894 14.3 21 17.6 101560 66
2001-08-29 10:48 51°25.971 3°5.206 12.3 11 17.6 101540 67
2001-08-29 10:49 51°25.863 3°5.517 14 14 17.6 101540 64
2001-08-29 10:50 51°25.754 3°5.827 14.2 17 17.7 101530 66
2001-08-29 10:51 51°25.647 3°6.141 14.4 16 17.7 101550 65
2001-08-29 10:52 51°25.531 3°6.447 14.9 14 17.7 101550 64
2001-08-29 10:53 51°25.425 3°6.762 14.9 18 17.7 101550 65
2001-08-29 10:54 51°25.317 3°7.076 14.5 23 17.7 101540 62
2001-08-29 10:55 51°25.204 3°7.383 14.1 13 17.7 101550 64
2001-08-29 10:56 51°25.102 3°7.701 14 14 17.7 101550 65
2001-08-29 10:57 51°24.994 3°8.022 14.5 14 17.8 101540 64
2001-08-29 10:58 51°24.886 3°8.333 11.9 12 17.7 101550 62
2001-08-29 10:59 51°24.799 3°8.67 14.2 11 17.7 101540 64
2001-08-29 11:00 51°24.74 3°9.023 13.2 11 17.6 101540 64
2001-08-29 11:01 51°24.677 3°9.377 13.6 4 17.7 101530 67
2001-08-29 11:02 51°24.641 3°9.742 14.6 9 17.7 101530 67
2001-08-29 11:03 51°24.586 3°10.103 14.9 19 17.7 101540 64
2001-08-29 11:04 51°24.521 3°10.458 15.2 16 17.7 101530 65
2001-08-29 11:05 51°24.456 3°10.816 13 10 17.7 101530 63
2001-08-29 11:06 51°24.383 3°11.168 13.3 14 17.7 101540 64
2001-08-29 11:07 51°24.32 3°11.526 15.8 10 17.7 101520 64
2001-08-29 11:08 51°24.263 3°11.884 14.7 15 17.8 101520 65
2001-08-29 11:09 51°24.183 3°12.23 13.2 18 17.8 101510 65
2001-08-29 11:10 51°24.103 3°12.576 16.4 18 17.8 101510 66
2001-08-29 11:11 51°24.019 3°12.929 14.8 18 17.8 101520 65
2001-08-29 11:12 51°23.951 3°13.268 15.4 17 17.8 101500 64
2001-08-29 11:13 51°23.864 3°13.605 13.3 19 17.9 101510 66
2001-08-29 11:14 51°23.768 3°13.935 15 14 17.9 101510 64
2001-08-29 11:15 51°23.709 3°14.287 14.8 3 17.9 101510 65
2001-08-29 11:16 51°23.82 3°14.579 10.9 320 17.9 101510 64
2001-08-29 11:17 51°23.991 3°14.457 2.6 253 17.9 101510 68
2001-08-29 11:18 51°24.077 3°14.145 3.1 291 17.8 101540 67
2001-08-29 11:19 51°24.224 3°13.886 5.2 297 17.8 101540 67
2001-08-29 11:20 51°24.407 3°13.685 7.7 318 17.8 101530 68
2001-08-29 11:21 51°24.596 3°13.49 7.1 306 17.6 101520 63
2001-08-29 11:22 51°24.77 3°13.269 4.7 305 17.6 101540 65
2001-08-29 11:23 51°24.899 3°12.987 4.2 282 17.6 101550 66
2001-08-29 11:24 51°24.998 3°12.673 2.2 307 17.6 101550 64
2001-08-29 11:25 51°25.087 3°12.342 3.3 283 17.6 101550 68
2001-08-29 11:26 51°25.198 3°12.027 3.6 283 17.6 101540 63
2001-08-29 11:27 51°25.317 3°11.717 4.8 278 17.6 101550 65
2001-08-29 11:28 51°25.433 3°11.408 2.8 266 17.7 101550 66
2001-08-29 11:29 51°25.557 3°11.106 3.4 294 17.7 101550 65
2001-08-29 11:30 51°25.672 3°10.792 5.5 286 17.7 101540 67
2001-08-29 11:31 51°25.793 3°10.487 3.4 304 17.7 101550 64
2001-08-29 11:32 51°25.917 3°10.178 3.7 291 17.7 101540 63
2001-08-29 11:33 51°26.046 3°9.874 4 304 17.6 101540 61
2001-08-29 11:34 51°26.185 3°9.577 3.6 290 17.7 101540 65
2001-08-29 11:35 51°26.321 3°9.277 3.9 304 17.7 101540 66
2001-08-29 11:36 51°26.449 3°8.968 2.7 311 17.6 101530 64
2001-08-29 11:37 51°26.575 3°8.659 2.9 318 17.6 101540 63
2001-08-29 11:38 51°26.704 3°8.357 2.9 322 17.6 101550 65
2001-08-29 11:39 51°26.828 3°8.051 4.4 296 17.7 101540 64
2001-08-29 11:40 51°26.954 3°7.751 4 308 17.7 101540 62
2001-08-29 11:41 51°27.084 3°7.453 3.4 285 17.7 101540 62
2001-08-29 11:42 51°27.214 3°7.151 2.9 293 17.7 101550 62
2001-08-29 11:43 51°27.343 3°6.851 3.2 294 17.7 101540 64
2001-08-29 11:44 51°27.473 3°6.549 3.1 295 17.7 101540 64
2001-08-29 11:45 51°27.605 3°6.254 6 302 17.8 101540 65
2001-08-29 11:46 51°27.819 3°6.202 11.9 337 17.8 101530 62
2001-08-29 11:47 51°27.97 3°6.5 14 354 17.8 101520 60
2001-08-29 11:48 51°28.058 3°6.835 13.8 349 17.9 101500 63
2001-08-29 11:49 51°28.155 3°7.164 12.2 350 18 101510 62
2001-08-29 11:50 51°28.254 3°7.493 11.6 358 18 101510 61
2001-08-29 11:51 51°28.344 3°7.828 12.1 357 18 101520 62
2001-08-29 11:52 51°28.438 3°8.16 12.5 358 18.1 101520 65
2001-08-29 11:53 51°28.524 3°8.496 11.6 352 18 101510 62
2001-08-29 11:54 51°28.625 3°8.823 11.4 355 18.1 101520 63
2001-08-29 11:55 51°28.714 3°9.158 12 359 18.1 101510 60
2001-08-29 11:56 51°28.805 3°9.493 12 356 18.1 101510 62
2001-08-29 11:57 51°28.906 3°9.819 12.2 358 18.2 101520 62
2001-08-29 11:58 51°28.986 3°10.149 13.1 2 18.1 101540 61
2001-08-29 11:59 51°28.894 3°10.428 13.2 26 18.1 101520 63
2001-08-29 12:00 51°28.736 3°10.648 15.1 20 18.2 101510 62
2001-08-29 12:01 51°28.577 3°10.864 13.3 29 18.2 101510 63
2001-08-29 12:02 51°28.421 3°11.083 14.4 30 18.2 101500 62
2001-08-29 12:03 51°28.267 3°11.307 15.6 25 18.2 101500 62
2001-08-29 12:04 51°28.114 3°11.531 14.4 26 18.3 101500 62
2001-08-29 12:05 51°27.969 3°11.765 15.1 28 18.3 101500 61
2001-08-29 12:06 51°27.812 3°11.988 15.4 25 18.3 101490 62
2001-08-29 12:07 51°27.659 3°12.211 14.8 27 18.4 101500 62
2001-08-29 12:08 51°27.515 3°12.446 15.1 28 18.4 101490 61
2001-08-29 12:09 51°27.365 3°12.675 16.1 25 18.4 101490 58
2001-08-29 12:10 51°27.212 3°12.895 15.3 22 18.4 101500 63
2001-08-29 12:11 51°27.054 3°13.102 14.9 26 18.4 101490 61
2001-08-29 12:12 51°26.898 3°13.319 17 30 18.3 101490 62
2001-08-29 12:13 51°26.744 3°13.532 16.7 33 18.3 101480 62
2001-08-29 12:14 51°26.594 3°13.762 15 28 18.4 101490 62
2001-08-29 12:15 51°26.449 3°13.989 13.7 29 18.5 101490 63
2001-08-29 12:16 51°26.295 3°14.197 15.3 38 18.5 101470 62
2001-08-29 12:17 51°26.157 3°14.432 16.4 31 18.4 101470 63
2001-08-29 12:18 51°26.007 3°14.645 16.3 34 18.4 101470 62
2001-08-29 12:19 51°25.857 3°14.867 15.3 30 18.4 101470 62
2001-08-29 12:20 51°25.71 3°15.101 15.8 19 18.4 101470 63
2001-08-29 12:21 51°25.617 3°15.395 16.8 22 18.4 101470 61
2001-08-29 12:22 51°25.535 3°15.703 15.8 13 18.5 101460 60
2001-08-29 12:23 51°25.451 3°16.013 16 20 18.5 101460 61
2001-08-29 12:24 51°25.368 3°16.327 16.9 14 18.5 101450 61
2001-08-29 12:25 51°25.273 3°16.631 17.5 24 18.5 101460 62
2001-08-29 12:26 51°25.18 3°16.938 17.9 22 18.5 101450 61
2001-08-29 12:27 51°25.134 3°17.269 14.6 14 18.5 101460 62
2001-08-29 12:28 51°25.052 3°17.583 15.9 19 18.6 101450 62
2001-08-29 12:29 51°24.952 3°17.881 16.2 24 18.5 101460 61
2001-08-29 12:30 51°24.861 3°18.184 16.1 21 18.5 101460 59
2001-08-29 12:31 51°24.756 3°18.474 14.7 22 18.6 101450 60
2001-08-29 12:32 51°24.661 3°18.779 16.6 18 18.6 101440 60
2001-08-29 12:33 51°24.571 3°19.083 16.6 24 18.7 101450 61
2001-08-29 12:34 51°24.472 3°19.375 15.9 17 18.8 101450 61
2001-08-29 12:35 51°24.379 3°19.674 14.7 23 18.7 101440 60
2001-08-29 12:36 51°24.285 3°19.971 15.6 32 18.8 101430 61
2001-08-29 12:37 51°24.094 3°20.094 8.2 59 18.7 101430 59
2001-08-29 12:38 51°23.93 3°19.892 0.3 70 18.7 101470 58
2001-08-29 12:39 51°23.808 3°19.58 1.1 93 18.7 101480 59
2001-08-29 12:40 51°23.675 3°19.274 0.6 54 18.7 101470 59
2001-08-29 12:41 51°23.552 3°18.954 1 182 18.9 101470 62
2001-08-29 12:42 51°23.446 3°18.622 0.6 344 18.9 101480 58
2001-08-29 12:43 51°23.37 3°18.284 0.1 106 19 101470 58
2001-08-29 12:44 51°23.321 3°17.919 1.1 284 19.2 101470 57
2001-08-29 12:45 51°23.293 3°17.536 1 339 19.3 101470 56
2001-08-29 12:46 51°23.263 3°17.165 2.1 265 19.3 101470 59
2001-08-29 12:47 51°23.232 3°16.792 1.2 229 19.3 101460 61
2001-08-29 12:48 51°23.209 3°16.417 2.6 261 19.2 101460 57
2001-08-29 12:49 51°23.187 3°16.042 2.3 294 19 101460 56
2001-08-29 12:50 51°23.164 3°15.665 2.4 259 19 101460 57
2001-08-29 12:51 51°23.142 3°15.286 1.9 266 18.9 101460 60
2001-08-29 12:52 51°23.114 3°14.906 2.1 277 18.9 101460 58
2001-08-29 12:53 51°23.087 3°14.526 2.8 273 18.8 101460 58
2001-08-29 12:54 51°23.06 3°14.149 2.4 268 18.8 101460 62
2001-08-29 12:55 51°23.036 3°13.77 2.5 258 18.8 101450 60
2001-08-29 12:56 51°23.003 3°13.393 2.1 271 18.8 101450 62
2001-08-29 12:57 51°22.972 3°13.014 1.7 281 18.8 101440 60
2001-08-29 12:58 51°22.938 3°12.638 1.4 228 18.8 101450 61
2001-08-29 12:59 51°22.887 3°12.269 2.7 259 18.8 101450 63
2001-08-29 13:00 51°22.851 3°11.897 2.6 251 18.8 101440 60
2001-08-29 13:01 51°22.802 3°11.531 2 247 18.9 101440 60
2001-08-29 13:02 51°22.758 3°11.166 1.7 234 18.8 101440 58
2001-08-29 13:03 51°22.718 3°10.798 1.9 261 18.8 101440 59
2001-08-29 13:04 51°22.67 3°10.433 1.1 261 18.9 101430 59
2001-08-29 13:05 51°22.612 3°10.07 0.8 197 18.9 101430 58
2001-08-29 13:06 51°22.552 3°9.712 1.1 228 18.9 101430 59
2001-08-29 13:07 51°22.493 3°9.347 1.1 213 19 101420 59
2001-08-29 13:08 51°22.426 3°8.987 0.7 238 19 101420 57
2001-08-29 13:09 51°22.366 3°8.624 0.7 276 19 101420 59
2001-08-29 13:10 51°22.297 3°8.265 0.9 261 19.2 101430 62
2001-08-29 13:11 51°22.226 3°7.906 0.8 264 19.3 101430 61
2001-08-29 13:12 51°22.157 3°7.545 1 191 19.3 101430 59
2001-08-29 13:13 51°22.089 3°7.185 2.1 227 19.3 101420 61
2001-08-29 13:14 51°22.021 3°6.826 1.4 221 19.3 101420 57
2001-08-29 13:15 51°21.944 3°6.474 1.2 231 19.3 101420 59
2001-08-29 13:16 51°21.872 3°6.12 1.4 192 19.3 101420 59
2001-08-29 13:17 51°21.793 3°5.771 0.9 105 19.3 101420 61
2001-08-29 13:18 51°21.709 3°5.424 0.5 169 19.4 101420 60
2001-08-29 13:19 51°21.633 3°5.071 0.3 144 19.5 101420 57
2001-08-29 13:20 51°21.545 3°4.726 0.3 242 19.6 101420 58
2001-08-29 13:21 51°21.477 3°4.37 1.9 217 19.8 101410 58
2001-08-29 13:22 51°21.398 3°4.018 1.1 224 19.6 101410 55
2001-08-29 13:23 51°21.312 3°3.671 0.6 207 19.5 101410 56
2001-08-29 13:24 51°21.235 3°3.319 0.8 211 19.6 101400 60
2001-08-29 13:25 51°21.152 3°2.972 0.8 135 19.6 101410 60
2001-08-29 13:26 51°21.067 3°2.627 0.9 260 19.7 101400 59
2001-08-29 13:27 51°20.98 3°2.284 1.4 240 19.8 101400 60
2001-08-29 13:28 51°20.909 3°1.93 0.7 187 19.8 101400 57
2001-08-29 13:29 51°20.819 3°1.585 0.9 274 19.8 101400 59
2001-08-29 13:30 51°20.741 3°1.232 1.1 220 19.9 101390 58
2001-08-29 13:31 51°20.657 3°0.882 0.4 230 19.9 101390 59
2001-08-29 13:32 51°20.574 3°0.531 0.2 49 20 101390 58
2001-08-29 13:33 51°20.489 3°0.182 0.3 234 20.2 101400 60
2001-08-29 13:34 51°20.398 2°59.836 0.3 113 20.3 101390 59
2001-08-29 13:35 51°20.312 2°59.487 0.2 120 20.4 101390 58
2001-08-29 13:36 51°20.229 2°59.135 0.6 43 20.6 101390 57
2001-08-29 13:37 51°20.145 2°58.784 0.4 199 20.8 101390 58
2001-08-29 13:38 51°20.058 2°58.435 0.9 210 21 101390 58
2001-08-29 13:39 51°19.971 2°58.087 0.5 255 21 101380 57
2001-08-29 13:40 51°19.884 2°57.738 0.2 92 20.9 101380 53
2001-08-29 13:41 51°19.798 2°57.39 0.8 218 20.8 101380 55
2001-08-29 13:42 51°19.712 2°57.043 0.6 191 20.6 101380 54
2001-08-29 13:43 51°19.627 2°56.696 0.6 275 20.6 101380 59
2001-08-29 13:44 51°19.541 2°56.349 1.2 243 20.6 101380 58
2001-08-29 13:45 51°19.457 2°56.001 1 236 20.5 101370 60
2001-08-29 13:46 51°19.37 2°55.658 1.4 278 20.4 101370 58
2001-08-29 13:47 51°19.288 2°55.312 1.3 244 20.2 101370 59
2001-08-29 13:48 51°19.202 2°54.966 1.9 246 20.1 101370 59
2001-08-29 13:49 51°19.12 2°54.617 2.1 229 20 101370 59
2001-08-29 13:50 51°19.035 2°54.272 1.8 202 19.8 101370 57
2001-08-29 13:51 51°18.948 2°53.925 1 266 19.6 101360 59
2001-08-29 13:52 51°18.862 2°53.576 1.9 231 19.6 101360 60
2001-08-29 13:53 51°18.776 2°53.228 1.6 231 19.7 101360 62
2001-08-29 13:54 51°18.695 2°52.875 2.2 239 19.6 101360 60
2001-08-29 13:55 51°18.603 2°52.533 0.6 114 19.6 101360 58
2001-08-29 13:56 51°18.422 2°52.309 1.1 235 19.6 101360 61
2001-08-29 13:57 51°18.201 2°52.233 4.9 312 19.5 101340 63
2001-08-29 13:58 51°17.974 2°52.232 5.3 128 19.5 101330 63
2001-08-29 13:59 51°17.749 2°52.251 6.4 319 19.4 101330 60
2001-08-29 14:00 51°17.527 2°52.305 9.5 69 19.4 101320 63
2001-08-29 14:01 51°17.315 2°52.41 5.1 48 19.4 101310 62
2001-08-29 14:02 51°17.115 2°52.56 5.7 125 19.4 101310 62
2001-08-29 14:03 51°16.917 2°52.71 8.4 47 19.4 101310 60
2001-08-29 14:04 51°16.715 2°52.86 5.3 131 19.4 101310 62
2001-08-29 14:05 51°16.506 2°52.993 10.7 52 19.4 101310 60
2001-08-29 14:06 51°16.303 2°53.136 5.8 321 19.3 101320 64
2001-08-29 14:07 51°16.104 2°53.29 7.3 130 19.4 101300 63
2001-08-29 14:08 51°15.911 2°53.459 8.6 44 19.4 101300 63
2001-08-29 14:09 51°15.721 2°53.635 5.1 132 19.5 101310 63
2001-08-29 14:10 51°15.528 2°53.812 13.2 37 19.5 101310 63
2001-08-29 14:11 51°15.332 2°53.972 9.6 45 19.6 101310 64
2001-08-29 14:12 51°15.142 2°54.144 11.6 27 19.6 101320 60
2001-08-29 14:13 51°14.952 2°54.316 11.6 19 19.8 101310 53
2001-08-29 14:14 51°14.766 2°54.507 12.4 13 20 101300 52
2001-08-29 14:15 51°14.592 2°54.707 10.1 20 20.2 101300 49
2001-08-29 14:16 51°14.433 2°54.926 11.6 15 20.3 101290 50
2001-08-29 14:17 51°14.302 2°55.183 9.1 16 20.4 101290 50
2001-08-29 14:18 51°14.162 2°55.382 8.1 14 20.5 101300 47
2001-08-29 14:19 51°14.061 2°55.453 5.5 7 20.7 101300 47
2001-08-29 14:20 51°13.976 2°55.511 8.4 25 20.7 101300 46
2001-08-29 14:21 51°13.854 2°55.602 3.4 37 20.8 101290 45
2001-08-29 14:22 51°13.775 2°55.681 6.2 19 20.9 101300 45
2001-08-29 14:23 51°13.735 2°55.752 3.9 5 21.1 101300 44
2001-08-29 14:24 51°13.709 2°55.81 5.4 15 21.1 101300 43
2001-08-29 14:25 51°13.69 2°55.868 4.9 11 21.1 101290 44
2001-08-29 14:26 51°13.676 2°55.92 5.8 35 21.2 101290 43
2001-08-29 14:27 51°13.677 2°55.918 3.4 33 21.3 101300 43
2001-08-29 14:28 51°13.677 2°55.924 2.1 48 21.4 101300 43
2001-08-29 14:29 51°13.677 2°55.924 3.4 322 21.5 101300 43
2001-08-29 14:30 51°13.676 2°55.924 5.2 29 21.7 101300 43